createdAt,value
2018-05-03T00:00:04.096Z,97424.49
2018-05-03T00:01:09.709Z,97431.34
2018-05-03T00:02:14.266Z,97426.00
2018-05-03T00:03:19.412Z,97435.73
2018-05-03T00:04:24.015Z,97429.95
2018-05-03T00:05:28.633Z,97433.27
2018-05-03T00:06:33.195Z,97431.97
2018-05-03T00:07:38.108Z,97431.73
2018-05-03T00:08:42.643Z,97433.97
2018-05-03T00:09:47.251Z,97430.92
2018-05-03T00:10:51.796Z,97431.69
2018-05-03T00:11:56.310Z,97438.53
2018-05-03T00:13:01.009Z,97435.12
2018-05-03T00:14:05.844Z,97440.07
2018-05-03T00:15:10.377Z,97434.09
2018-05-03T00:16:14.864Z,97435.64
2018-05-03T00:17:19.643Z,97432.87
2018-05-03T00:18:24.256Z,97435.77
2018-05-03T00:19:28.813Z,97439.12
2018-05-03T00:20:33.794Z,97432.19
2018-05-03T00:21:38.338Z,97435.41
2018-05-03T00:22:42.745Z,97434.17
2018-05-03T00:23:48.254Z,97436.47
2018-05-03T00:24:52.726Z,97432.19
2018-05-03T00:25:57.247Z,97436.38
2018-05-03T00:27:02.206Z,97435.70
2018-05-03T00:28:06.726Z,97437.73
2018-05-03T00:29:11.260Z,97439.28
2018-05-03T00:30:15.770Z,97442.19
2018-05-03T00:31:20.294Z,97441.36
2018-05-03T00:32:25.997Z,97436.84
2018-05-03T00:33:30.953Z,97443.02
2018-05-03T00:34:35.729Z,97441.34
2018-05-03T00:35:40.235Z,97443.40
2018-05-03T00:36:44.652Z,97448.11
2018-05-03T00:37:49.501Z,97449.59
2018-05-03T00:38:55.020Z,97445.68
2018-05-03T00:40:00.366Z,97445.72
2018-05-03T00:41:04.929Z,97451.63
2018-05-03T00:42:09.521Z,97454.16
2018-05-03T00:43:15.084Z,97451.97
2018-05-03T00:44:19.551Z,97455.52
2018-05-03T00:45:23.973Z,97454.05
2018-05-03T00:46:28.683Z,97448.91
2018-05-03T00:47:33.080Z,97454.48
2018-05-03T00:48:37.503Z,97453.38
2018-05-03T00:49:42.988Z,97456.16
2018-05-03T00:50:47.468Z,97459.87
2018-05-03T00:51:53.379Z,97457.17
2018-05-03T00:52:58.301Z,97457.73
2018-05-03T00:54:02.822Z,97456.48
2018-05-03T00:55:08.394Z,97449.20
2018-05-03T00:56:13.139Z,97453.77
2018-05-03T00:57:17.615Z,97458.65
2018-05-03T00:58:22.145Z,97457.27
2018-05-03T00:59:27.033Z,97460.50
2018-05-03T01:00:31.516Z,97468.31
2018-05-03T01:01:36.239Z,97464.56
2018-05-03T01:02:40.894Z,97459.78
2018-05-03T01:03:45.335Z,97463.23
2018-05-03T01:04:49.769Z,97463.86
2018-05-03T01:05:54.624Z,97457.81
2018-05-03T01:06:58.997Z,97457.36
2018-05-03T01:08:03.405Z,97450.09
2018-05-03T01:09:07.788Z,97454.61
2018-05-03T01:10:12.196Z,97461.59
2018-05-03T01:11:16.609Z,97469.50
2018-05-03T01:12:21.999Z,97468.63
2018-05-03T01:13:26.489Z,97473.77
2018-05-03T01:14:31.030Z,97470.28
2018-05-03T01:15:36.521Z,97469.83
2018-05-03T01:16:42.047Z,97473.80
2018-05-03T01:17:46.427Z,97467.90
2018-05-03T01:18:51.169Z,97474.15
2018-05-03T01:19:55.519Z,97471.31
2018-05-03T01:20:59.978Z,97474.71
2018-05-03T01:22:04.430Z,97478.95
2018-05-03T01:23:08.993Z,97473.50
2018-05-03T01:24:13.532Z,97476.53
2018-05-03T01:25:18.461Z,97479.52
2018-05-03T01:26:23.059Z,97483.31
2018-05-03T01:27:27.549Z,97476.05
2018-05-03T01:28:32.034Z,97481.90
2018-05-03T01:29:36.512Z,97479.38
2018-05-03T01:30:41.339Z,97480.70
2018-05-03T01:31:45.872Z,97476.91
2018-05-03T01:32:50.502Z,97478.71
2018-05-03T01:33:55.857Z,97483.84
2018-05-03T01:35:04.591Z,97480.77
2018-05-03T01:36:42.503Z,97490.38
2018-05-03T01:37:47.047Z,97493.64
2018-05-03T01:38:52.343Z,97494.94
2018-05-03T01:39:57.851Z,97488.83
2018-05-03T01:41:02.356Z,97493.47
2018-05-03T01:42:06.821Z,97491.36
2018-05-03T01:43:11.608Z,97497.70
2018-05-03T01:44:15.999Z,97496.20
2018-05-03T01:45:20.496Z,97501.53
2018-05-03T01:46:40.653Z,97500.23
2018-05-03T01:47:46.989Z,97500.02
2018-05-03T01:48:51.503Z,97497.56
2018-05-03T01:49:56.362Z,97497.81
2018-05-03T01:51:00.879Z,97498.30
2018-05-03T01:52:05.302Z,97500.52
2018-05-03T01:53:09.749Z,97502.45
2018-05-03T01:54:14.293Z,97498.83
2018-05-03T01:55:19.575Z,97502.86
2018-05-03T01:56:24.779Z,97498.02
2018-05-03T01:57:29.239Z,97500.19
2018-05-03T01:58:33.696Z,97499.49
2018-05-03T01:59:38.090Z,97503.61
2018-05-03T02:00:42.332Z,97507.13
2018-05-03T02:01:46.555Z,97509.76
2018-05-03T02:02:51.093Z,97509.39
2018-05-03T02:03:55.384Z,97508.75
2018-05-03T02:04:59.698Z,97517.14
2018-05-03T02:06:04.122Z,97517.55
2018-05-03T02:07:08.584Z,97513.47
2018-05-03T02:08:13.733Z,97515.16
2018-05-03T02:09:18.570Z,97514.92
2018-05-03T02:10:23.062Z,97509.47
2018-05-03T02:11:27.528Z,97509.39
2018-05-03T02:12:32.010Z,97510.52
2018-05-03T02:13:36.592Z,97510.64
2018-05-03T02:14:42.917Z,97516.13
2018-05-03T02:15:47.677Z,97518.27
2018-05-03T02:16:53.937Z,97517.95
2018-05-03T02:17:58.361Z,97518.63
2018-05-03T02:19:02.797Z,97516.41
2018-05-03T02:20:07.088Z,97518.75
2018-05-03T02:21:11.605Z,97519.00
2018-05-03T02:22:16.308Z,97528.44
2018-05-03T02:23:20.670Z,97530.91
2018-05-03T02:24:24.993Z,97531.11
2018-05-03T02:25:29.286Z,97533.47
2018-05-03T02:26:33.702Z,97524.63
2018-05-03T02:27:38.657Z,97526.00
2018-05-03T02:28:43.432Z,97526.56
2018-05-03T02:29:47.984Z,97533.34
2018-05-03T02:30:55.160Z,97531.94
2018-05-03T02:31:59.535Z,97530.09
2018-05-03T02:33:04.016Z,97527.55
2018-05-03T02:34:08.432Z,97532.52
2018-05-03T02:35:13.286Z,97528.42
2018-05-03T02:36:17.686Z,97535.33
2018-05-03T02:37:22.160Z,97539.55
2018-05-03T02:38:26.621Z,97536.97
2018-05-03T02:39:32.055Z,97531.42
2018-05-03T02:40:36.434Z,97533.33
2018-05-03T02:41:40.821Z,97533.02
2018-05-03T02:42:45.223Z,97532.45
2018-05-03T02:43:49.926Z,97532.33
2018-05-03T02:44:54.316Z,97526.80
2018-05-03T02:45:58.770Z,97526.22
2018-05-03T02:47:03.672Z,97536.00
2018-05-03T02:48:08.127Z,97540.45
2018-05-03T02:49:12.908Z,97541.22
2018-05-03T02:50:17.360Z,97541.13
2018-05-03T02:51:21.832Z,97535.16
2018-05-03T02:52:26.277Z,97535.14
2018-05-03T02:53:31.177Z,97533.98
2018-05-03T02:54:35.637Z,97537.59
2018-05-03T02:55:40.126Z,97538.41
2018-05-03T02:56:44.560Z,97540.14
2018-05-03T02:57:58.566Z,97541.75
2018-05-03T03:01:19.519Z,97538.59
2018-05-03T03:04:33.155Z,97535.01
2018-05-03T03:07:49.929Z,97532.94
2018-05-03T03:11:06.134Z,97540.75
2018-05-03T03:14:18.881Z,97541.83
2018-05-03T03:17:35.025Z,97546.97
2018-05-03T03:18:48.837Z,97546.13
2018-05-03T03:19:57.699Z,97540.08
2018-05-03T03:21:11.664Z,97535.53
2018-05-03T03:24:53.258Z,97537.46
2018-05-03T03:26:06.562Z,97536.30
2018-05-03T03:27:20.449Z,97544.52
2018-05-03T03:30:36.581Z,97537.03
2018-05-03T03:33:49.357Z,97545.25
2018-05-03T03:34:54.815Z,97542.44
2018-05-03T03:36:03.469Z,97549.48
2018-05-03T03:37:16.869Z,97550.73
2018-05-03T03:38:30.552Z,97544.73
2018-05-03T03:41:47.472Z,97542.72
2018-05-03T03:42:56.117Z,97544.09
2018-05-03T03:45:05.867Z,97542.47
2018-05-03T03:46:10.278Z,97541.06
2018-05-03T03:47:14.651Z,97547.02
2018-05-03T03:48:19.708Z,97550.10
2018-05-03T03:49:24.178Z,97551.90
2018-05-03T03:50:28.754Z,97548.81
2018-05-03T03:51:33.254Z,97552.31
2018-05-03T03:52:37.583Z,97551.68
2018-05-03T03:53:43.609Z,97549.11
2018-05-03T03:54:48.642Z,97549.84
2018-05-03T03:55:53.095Z,97555.72
2018-05-03T03:56:58.451Z,97553.16
2018-05-03T03:58:02.904Z,97562.13
2018-05-03T03:59:07.440Z,97557.59
2018-05-03T04:00:12.531Z,97559.95
2018-05-03T04:01:17.495Z,97558.00
2018-05-03T04:02:21.986Z,97557.48
2018-05-03T04:03:26.533Z,97555.35
2018-05-03T04:04:32.292Z,97558.84
2018-05-03T04:05:38.455Z,97557.19
2018-05-03T04:06:42.985Z,97559.72
2018-05-03T04:07:47.821Z,97566.73
2018-05-03T04:08:52.198Z,97567.98
2018-05-03T04:09:57.883Z,97573.68
2018-05-03T04:11:02.422Z,97578.02
2018-05-03T04:12:08.282Z,97573.89
2018-05-03T04:13:13.177Z,97584.19
2018-05-03T04:14:19.216Z,97583.83
2018-05-03T04:15:23.892Z,97587.83
2018-05-03T04:16:28.733Z,97582.09
2018-05-03T04:17:37.373Z,97583.34
2018-05-03T04:18:47.421Z,97588.76
2018-05-03T04:20:01.382Z,97588.76
2018-05-03T04:23:17.066Z,97586.55
2018-05-03T04:26:30.733Z,97584.57
2018-05-03T04:27:35.108Z,97588.61
2018-05-03T04:28:39.963Z,97589.15
2018-05-03T04:29:44.425Z,97589.52
2018-05-03T04:30:49.141Z,97583.95
2018-05-03T04:31:53.498Z,97579.77
2018-05-03T04:32:58.462Z,97583.42
2018-05-03T04:34:05.044Z,97579.20
2018-05-03T04:35:10.717Z,97578.62
2018-05-03T04:36:15.218Z,97592.13
2018-05-03T04:37:19.985Z,97590.84
2018-05-03T04:38:24.453Z,97589.41
2018-05-03T04:39:29.483Z,97591.95
2018-05-03T04:40:34.247Z,97591.92
2018-05-03T04:41:38.632Z,97586.30
2018-05-03T04:42:44.282Z,97589.12
2018-05-03T04:43:49.086Z,97585.16
2018-05-03T04:44:54.039Z,97595.12
2018-05-03T04:45:58.931Z,97597.98
2018-05-03T04:47:03.630Z,97603.42
2018-05-03T04:48:08.178Z,97603.70
2018-05-03T04:49:12.964Z,97603.95
2018-05-03T04:50:18.262Z,97607.95
2018-05-03T04:51:22.690Z,97611.64
2018-05-03T04:52:27.162Z,97616.91
2018-05-03T04:53:31.672Z,97614.28
2018-05-03T04:54:36.071Z,97614.80
2018-05-03T04:55:40.508Z,97617.67
2018-05-03T04:56:45.239Z,97619.19
2018-05-03T04:57:49.603Z,97624.08
2018-05-03T04:58:54.018Z,97625.25
2018-05-03T04:59:58.446Z,97627.48
2018-05-03T05:01:02.844Z,97631.48
2018-05-03T05:02:07.306Z,97630.84
2018-05-03T05:03:12.524Z,97638.20
2018-05-03T05:04:17.023Z,97633.30
2018-05-03T05:05:21.427Z,97635.38
2018-05-03T05:06:26.852Z,97634.95
2018-05-03T05:07:31.340Z,97642.09
2018-05-03T05:08:35.867Z,97638.48
2018-05-03T05:09:40.662Z,97642.46
2018-05-03T05:10:45.134Z,97641.89
2018-05-03T05:11:49.953Z,97642.62
2018-05-03T05:12:54.496Z,97648.88
2018-05-03T05:13:59.940Z,97647.15
2018-05-03T05:15:04.437Z,97648.41
2018-05-03T05:16:10.027Z,97651.53
2018-05-03T05:17:15.133Z,97651.02
2018-05-03T05:18:19.885Z,97648.77
2018-05-03T05:19:24.462Z,97655.28
2018-05-03T05:20:28.946Z,97654.19
2018-05-03T05:21:33.506Z,97656.49
2018-05-03T05:22:38.384Z,97662.56
2018-05-03T05:23:43.947Z,97658.03
2018-05-03T05:24:48.762Z,97661.09
2018-05-03T05:25:53.216Z,97656.31
2018-05-03T05:26:58.714Z,97661.24
2018-05-03T05:28:03.064Z,97662.75
2018-05-03T05:29:08.106Z,97665.32
2018-05-03T05:30:12.474Z,97661.53
2018-05-03T05:31:16.803Z,97667.02
2018-05-03T05:32:21.353Z,97662.67
2018-05-03T05:33:25.796Z,97662.53
2018-05-03T05:34:30.271Z,97661.75
2018-05-03T05:35:34.979Z,97664.91
2018-05-03T05:36:39.967Z,97664.43
2018-05-03T05:37:44.400Z,97668.75
2018-05-03T05:38:48.876Z,97669.63
2018-05-03T05:39:53.281Z,97668.69
2018-05-03T05:40:57.733Z,97669.49
2018-05-03T05:42:02.053Z,97667.61
2018-05-03T05:43:06.546Z,97670.88
2018-05-03T05:44:12.048Z,97677.61
2018-05-03T05:45:18.125Z,97676.02
2018-05-03T05:46:22.497Z,97684.77
2018-05-03T05:47:27.245Z,97682.04
2018-05-03T05:48:31.547Z,97690.61
2018-05-03T05:49:36.015Z,97682.00
2018-05-03T05:50:40.446Z,97685.02
2018-05-03T05:51:44.965Z,97686.16
2018-05-03T05:52:49.371Z,97689.13
2018-05-03T05:53:54.223Z,97688.52
2018-05-03T05:54:58.638Z,97685.38
2018-05-03T05:56:03.055Z,97687.09
2018-05-03T05:57:07.498Z,97686.65
2018-05-03T05:58:11.939Z,97686.20
2018-05-03T05:59:16.548Z,97691.62
2018-05-03T06:00:21.428Z,97690.44
2018-05-03T06:01:25.944Z,97686.22
2018-05-03T06:02:30.465Z,97687.00
2018-05-03T06:03:35.089Z,97693.84
2018-05-03T06:04:39.679Z,97688.11
2018-05-03T06:05:44.224Z,97691.94
2018-05-03T06:06:49.153Z,97690.73
2018-05-03T06:07:53.686Z,97693.55
2018-05-03T06:08:58.533Z,97689.23
2018-05-03T06:10:03.679Z,97686.52
2018-05-03T06:11:08.180Z,97692.83
2018-05-03T06:12:12.842Z,97690.02
2018-05-03T06:13:17.708Z,97688.63
2018-05-03T06:14:22.249Z,97689.92
2018-05-03T06:15:26.913Z,97696.63
2018-05-03T06:16:31.527Z,97699.61
2018-05-03T06:17:36.157Z,97707.41
2018-05-03T06:18:40.610Z,97708.88
2018-05-03T06:19:46.183Z,97704.98
2018-05-03T06:20:50.980Z,97713.95
2018-05-03T06:21:56.821Z,97712.34
2018-05-03T06:23:01.429Z,97706.87
2018-05-03T06:24:07.443Z,97715.02
2018-05-03T06:25:13.969Z,97714.44
2018-05-03T06:26:19.551Z,97717.09
2018-05-03T06:27:24.030Z,97723.20
2018-05-03T06:28:29.785Z,97722.13
2018-05-03T06:29:34.355Z,97724.67
2018-05-03T06:30:39.233Z,97724.91
2018-05-03T06:31:43.710Z,97731.98
2018-05-03T06:32:48.525Z,97732.39
2018-05-03T06:33:53.022Z,97729.97
2018-05-03T06:34:57.513Z,97738.70
2018-05-03T06:36:01.979Z,97736.07
2018-05-03T06:37:06.921Z,97732.39
2018-05-03T06:38:11.675Z,97735.67
2018-05-03T06:39:16.464Z,97744.87
2018-05-03T06:40:23.108Z,97743.11
2018-05-03T06:41:28.322Z,97754.06
2018-05-03T06:42:32.928Z,97754.14
2018-05-03T06:43:37.563Z,97752.92
2018-05-03T06:44:42.477Z,97752.08
2018-05-03T06:45:47.521Z,97752.73
2018-05-03T06:46:52.156Z,97750.17
2018-05-03T06:47:56.689Z,97750.75
2018-05-03T06:49:01.251Z,97750.91
2018-05-03T06:50:06.476Z,97757.21
2018-05-03T06:51:11.272Z,97760.17
2018-05-03T06:52:16.135Z,97755.91
2018-05-03T06:53:20.581Z,97755.99
2018-05-03T06:54:26.459Z,97759.06
2018-05-03T06:55:30.946Z,97763.29
2018-05-03T06:56:35.684Z,97759.28
2018-05-03T06:57:40.282Z,97761.39
2018-05-03T06:58:45.625Z,97758.48
2018-05-03T06:59:50.083Z,97759.69
2018-05-03T07:00:54.793Z,97758.34
2018-05-03T07:01:59.195Z,97763.48
2018-05-03T07:03:03.588Z,97768.14
2018-05-03T07:04:08.400Z,97772.58
2018-05-03T07:05:14.363Z,97775.13
2018-05-03T07:06:18.827Z,97781.17
2018-05-03T07:07:23.286Z,97776.17
2018-05-03T07:08:28.175Z,97777.15
2018-05-03T07:09:32.676Z,97781.64
2018-05-03T07:10:37.131Z,97782.92
2018-05-03T07:11:41.654Z,97783.83
2018-05-03T07:12:46.067Z,97779.46
2018-05-03T07:13:50.660Z,97776.21
2018-05-03T07:14:55.254Z,97779.17
2018-05-03T07:15:59.878Z,97771.77
2018-05-03T07:17:04.821Z,97780.50
2018-05-03T07:18:10.339Z,97777.66
2018-05-03T07:19:14.872Z,97776.44
2018-05-03T07:20:20.001Z,97781.48
2018-05-03T07:21:24.528Z,97790.25
2018-05-03T07:22:31.021Z,97783.31
2018-05-03T07:23:37.059Z,97786.71
2018-05-03T07:24:41.502Z,97786.80
2018-05-03T07:25:46.961Z,97789.16
2018-05-03T07:26:51.418Z,97789.39
2018-05-03T07:27:55.906Z,97783.20
2018-05-03T07:29:00.395Z,97784.45
2018-05-03T07:30:06.207Z,97785.18
2018-05-03T07:31:11.447Z,97785.53
2018-05-03T07:32:17.622Z,97784.78
2018-05-03T07:33:22.187Z,97786.95
2018-05-03T07:34:26.727Z,97781.69
2018-05-03T07:35:31.271Z,97790.42
2018-05-03T07:36:36.023Z,97790.20
2018-05-03T07:37:40.546Z,97792.36
2018-05-03T07:38:44.995Z,97794.04
2018-05-03T07:39:49.641Z,97804.52
2018-05-03T07:40:54.480Z,97801.30
2018-05-03T07:41:59.984Z,97799.97
2018-05-03T07:43:06.005Z,97803.36
2018-05-03T07:44:10.713Z,97799.71
2018-05-03T07:45:15.292Z,97803.69
2018-05-03T07:46:21.076Z,97791.25
2018-05-03T07:47:25.651Z,97792.94
2018-05-03T07:48:32.531Z,97801.98
2018-05-03T07:49:37.327Z,97805.19
2018-05-03T07:50:41.933Z,97812.05
2018-05-03T07:51:46.573Z,97818.52
2018-05-03T07:52:51.136Z,97815.77
2018-05-03T07:53:55.806Z,97811.88
2018-05-03T07:55:02.207Z,97815.44
2018-05-03T07:56:06.864Z,97816.67
2018-05-03T07:57:11.428Z,97814.78
2018-05-03T07:58:15.870Z,97817.67
2018-05-03T07:59:20.729Z,97813.39
2018-05-03T08:00:25.654Z,97818.80
2018-05-03T08:01:31.351Z,97824.61
2018-05-03T08:02:35.914Z,97821.34
2018-05-03T08:03:40.383Z,97821.87
2018-05-03T08:04:45.374Z,97818.89
2018-05-03T08:05:50.128Z,97821.45
2018-05-03T08:06:56.498Z,97820.31
2018-05-03T08:08:01.514Z,97825.62
2018-05-03T08:09:07.116Z,97825.56
2018-05-03T08:10:11.789Z,97828.10
2018-05-03T08:11:16.353Z,97831.84
2018-05-03T08:12:21.983Z,97835.75
2018-05-03T08:13:26.716Z,97835.45
2018-05-03T08:14:32.296Z,97842.25
2018-05-03T08:15:36.873Z,97838.69
2018-05-03T08:16:41.679Z,97835.92
2018-05-03T08:17:47.581Z,97830.48
2018-05-03T08:18:52.486Z,97840.51
2018-05-03T08:19:57.761Z,97841.72
2018-05-03T08:21:03.140Z,97839.09
2018-05-03T08:22:09.694Z,97840.89
2018-05-03T08:23:15.053Z,97840.41
2018-05-03T08:24:19.677Z,97839.34
2018-05-03T08:25:24.285Z,97845.63
2018-05-03T08:26:29.971Z,97836.37
2018-05-03T08:27:36.626Z,97841.77
2018-05-03T08:28:41.607Z,97840.19
2018-05-03T08:29:46.354Z,97852.20
2018-05-03T08:30:51.328Z,97852.02
2018-05-03T08:31:55.985Z,97858.23
2018-05-03T08:33:00.591Z,97857.22
2018-05-03T08:34:05.897Z,97854.11
2018-05-03T08:35:10.372Z,97861.43
2018-05-03T08:36:15.255Z,97863.70
2018-05-03T08:37:20.291Z,97861.89
2018-05-03T08:38:26.301Z,97868.47
2018-05-03T08:39:30.765Z,97864.06
2018-05-03T08:40:35.802Z,97867.37
2018-05-03T08:41:40.623Z,97866.50
2018-05-03T08:42:45.233Z,97867.30
2018-05-03T08:43:49.851Z,97865.00
2018-05-03T08:44:54.457Z,97866.95
2018-05-03T08:45:59.527Z,97868.37
2018-05-03T08:47:04.804Z,97861.94
2018-05-03T08:48:09.334Z,97867.67
2018-05-03T08:49:13.960Z,97863.64
2018-05-03T08:50:18.803Z,97863.53
2018-05-03T08:51:23.458Z,97864.80
2018-05-03T08:52:29.396Z,97874.59
2018-05-03T08:53:33.992Z,97871.94
2018-05-03T08:54:38.654Z,97872.61
2018-05-03T08:55:43.339Z,97870.70
2018-05-03T08:56:47.797Z,97874.38
2018-05-03T08:57:52.296Z,97869.27
2018-05-03T08:58:57.277Z,97876.56
2018-05-03T09:00:01.939Z,97871.79
2018-05-03T09:01:06.617Z,97873.30
2018-05-03T09:02:11.090Z,97885.24
2018-05-03T09:03:15.610Z,97878.03
2018-05-03T09:04:20.281Z,97876.41
2018-05-03T09:05:24.778Z,97878.95
2018-05-03T09:06:46.120Z,97882.42
2018-05-03T09:07:51.457Z,97882.44
2018-05-03T09:08:56.021Z,97883.39
2018-05-03T09:10:00.625Z,97879.57
2018-05-03T09:11:05.598Z,97884.73
2018-05-03T09:12:10.230Z,97877.91
2018-05-03T09:13:14.879Z,97885.30
2018-05-03T09:14:19.500Z,97891.39
2018-05-03T09:15:24.198Z,97889.31
2018-05-03T09:16:28.776Z,97890.54
2018-05-03T09:17:33.796Z,97891.97
2018-05-03T09:18:38.369Z,97884.50
2018-05-03T09:19:43.332Z,97882.55
2018-05-03T09:20:47.837Z,97884.37
2018-05-03T09:21:52.751Z,97882.03
2018-05-03T09:22:57.402Z,97885.27
2018-05-03T09:24:01.995Z,97890.48
2018-05-03T09:25:06.821Z,97876.20
2018-05-03T09:26:11.345Z,97884.25
2018-05-03T09:27:15.913Z,97893.09
2018-05-03T09:28:20.445Z,97893.63
2018-05-03T09:29:25.253Z,97891.13
2018-05-03T09:30:29.765Z,97891.56
2018-05-03T09:31:34.260Z,97892.06
2018-05-03T09:32:38.842Z,97889.47
2018-05-03T09:33:43.487Z,97882.16
2018-05-03T09:34:48.127Z,97883.64
2018-05-03T09:35:53.244Z,97888.38
2018-05-03T09:36:57.888Z,97882.37
2018-05-03T09:38:02.987Z,97892.14
2018-05-03T09:39:07.611Z,97886.82
2018-05-03T09:40:13.206Z,97887.13
2018-05-03T09:41:17.784Z,97893.07
2018-05-03T09:42:22.705Z,97891.80
2018-05-03T09:43:27.317Z,97895.56
2018-05-03T09:44:31.853Z,97891.95
2018-05-03T09:45:37.384Z,97896.73
2018-05-03T09:46:42.058Z,97896.13
2018-05-03T09:47:46.654Z,97897.47
2018-05-03T09:48:51.685Z,97893.16
2018-05-03T09:49:56.331Z,97900.17
2018-05-03T09:51:00.888Z,97903.45
2018-05-03T09:52:05.494Z,97904.08
2018-05-03T09:53:10.082Z,97906.48
2018-05-03T09:54:14.648Z,97906.25
2018-05-03T09:55:20.064Z,97903.58
2018-05-03T09:56:24.651Z,97910.20
2018-05-03T09:57:29.218Z,97905.20
2018-05-03T09:58:33.695Z,97909.40
2018-05-03T09:59:38.204Z,97906.12
2018-05-03T10:00:42.724Z,97901.44
2018-05-03T10:01:47.217Z,97907.19
2018-05-03T10:02:51.732Z,97901.34
2018-05-03T10:03:56.266Z,97899.22
2018-05-03T10:05:00.781Z,97893.26
2018-05-03T10:06:05.606Z,97896.48
2018-05-03T10:07:10.410Z,97893.06
2018-05-03T10:08:14.943Z,97892.66
2018-05-03T10:09:19.452Z,97896.96
2018-05-03T10:10:24.005Z,97895.06
2018-05-03T10:11:28.473Z,97897.36
2018-05-03T10:12:33.243Z,97896.90
2018-05-03T10:13:37.892Z,97894.27
2018-05-03T10:14:42.395Z,97895.02
2018-05-03T10:15:46.841Z,97893.27
2018-05-03T10:16:51.351Z,97894.33
2018-05-03T10:17:55.855Z,97896.30
2018-05-03T10:19:00.630Z,97898.55
2018-05-03T10:20:05.217Z,97899.36
2018-05-03T10:21:09.653Z,97897.47
2018-05-03T10:22:14.447Z,97895.28
2018-05-03T10:23:19.084Z,97895.89
2018-05-03T10:24:23.645Z,97899.03
2018-05-03T10:25:28.517Z,97897.22
2018-05-03T10:26:33.085Z,97896.38
2018-05-03T10:27:41.257Z,97907.59
2018-05-03T10:28:45.924Z,97903.44
2018-05-03T10:29:50.554Z,97902.31
2018-05-03T10:30:55.492Z,97904.84
2018-05-03T10:32:00.011Z,97903.61
2018-05-03T10:33:04.511Z,97904.66
2018-05-03T10:34:08.967Z,97901.62
2018-05-03T10:35:13.522Z,97904.11
2018-05-03T10:36:18.046Z,97896.80
2018-05-03T10:37:22.739Z,97898.95
2018-05-03T10:38:27.152Z,97901.23
2018-05-03T10:39:31.527Z,97912.87
2018-05-03T10:40:35.883Z,97898.77
2018-05-03T10:41:40.221Z,97900.50
2018-05-03T10:42:44.698Z,97900.31
2018-05-03T10:43:49.737Z,97902.42
2018-05-03T10:44:54.395Z,97884.08
2018-05-03T10:45:59.033Z,97893.81
2018-05-03T10:47:03.831Z,97884.33
2018-05-03T10:48:08.526Z,97886.87
2018-05-03T10:49:13.171Z,97897.47
2018-05-03T10:50:17.784Z,97894.95
2018-05-03T10:51:22.452Z,97891.69
2018-05-03T10:52:27.008Z,97895.97
2018-05-03T10:53:31.640Z,97897.52
2018-05-03T10:54:36.176Z,97887.13
2018-05-03T10:55:41.138Z,97884.51
2018-05-03T10:56:45.797Z,97882.77
2018-05-03T10:57:50.385Z,97889.14
2018-05-03T10:58:55.048Z,97889.14
2018-05-03T10:59:59.623Z,97885.75
2018-05-03T11:01:04.100Z,97881.87
2018-05-03T11:02:09.014Z,97892.20
2018-05-03T11:03:13.645Z,97890.88
2018-05-03T11:04:18.238Z,97888.33
2018-05-03T11:05:23.024Z,97886.27
2018-05-03T11:06:27.724Z,97889.16
2018-05-03T11:07:32.280Z,97883.25
2018-05-03T11:08:37.464Z,97877.17
2018-05-03T11:09:42.045Z,97870.94
2018-05-03T11:10:46.618Z,97878.42
2018-05-03T11:11:51.275Z,97888.30
2018-05-03T11:12:55.835Z,97893.84
2018-05-03T11:14:00.383Z,97890.08
2018-05-03T11:15:05.446Z,97892.76
2018-05-03T11:16:09.988Z,97889.18
2018-05-03T11:17:15.049Z,97891.43
2018-05-03T11:18:19.541Z,97882.24
2018-05-03T11:19:24.093Z,97886.48
2018-05-03T11:20:28.565Z,97888.66
2018-05-03T11:21:34.279Z,97890.42
2018-05-03T11:22:38.800Z,97898.74
2018-05-03T11:23:43.293Z,97888.75
2018-05-03T11:24:47.769Z,97887.00
2018-05-03T11:25:52.386Z,97891.35
2018-05-03T11:26:56.964Z,97887.70
2018-05-03T11:28:01.814Z,97892.80
2018-05-03T11:29:06.513Z,97892.84
2018-05-03T11:30:11.075Z,97890.83
2018-05-03T11:31:15.714Z,97896.91
2018-05-03T11:32:20.293Z,97891.85
2018-05-03T11:33:24.933Z,97893.65
2018-05-03T11:34:29.929Z,97897.98
2018-05-03T11:35:34.631Z,97895.14
2018-05-03T11:36:39.213Z,97885.52
2018-05-03T11:37:44.021Z,97899.30
2018-05-03T11:38:48.524Z,97897.94
2018-05-03T11:39:53.133Z,97901.20
2018-05-03T11:40:58.117Z,97902.75
2018-05-03T11:42:03.457Z,97899.69
2018-05-03T11:43:07.926Z,97900.92
2018-05-03T11:44:12.545Z,97910.08
2018-05-03T11:45:17.151Z,97906.89
2018-05-03T11:46:21.667Z,97903.98
2018-05-03T11:47:26.569Z,97906.05
2018-05-03T11:48:31.105Z,97910.34
2018-05-03T11:49:35.701Z,97912.81
2018-05-03T11:50:40.551Z,97909.33
2018-05-03T11:51:45.061Z,97912.93
2018-05-03T11:52:49.630Z,97911.14
2018-05-03T11:53:54.639Z,97913.19
2018-05-03T11:54:59.195Z,97908.52
2018-05-03T11:56:03.537Z,97910.75
2018-05-03T11:57:08.027Z,97909.57
2018-05-03T11:58:12.608Z,97905.96
2018-05-03T11:59:17.216Z,97917.34
2018-05-03T12:00:22.234Z,97912.25
2018-05-03T12:01:26.892Z,97911.22
2018-05-03T12:02:31.616Z,97912.09
2018-05-03T12:03:36.657Z,97910.27
2018-05-03T12:04:41.409Z,97906.08
2018-05-03T12:05:45.895Z,97912.97
2018-05-03T12:06:50.757Z,97912.34
2018-05-03T12:07:55.436Z,97906.72
2018-05-03T12:08:59.993Z,97907.19
2018-05-03T12:10:04.620Z,97898.61
2018-05-03T12:11:09.219Z,97905.16
2018-05-03T12:12:13.745Z,97903.98
2018-05-03T12:13:19.073Z,97905.51
2018-05-03T12:14:23.560Z,97914.63
2018-05-03T12:15:28.062Z,97910.38
2018-05-03T12:16:33.230Z,97903.85
2018-05-03T12:17:38.036Z,97905.79
2018-05-03T12:18:44.534Z,97910.19
2018-05-03T12:19:48.997Z,97911.50
2018-05-03T12:20:53.463Z,97914.02
2018-05-03T12:21:58.134Z,97918.42
2018-05-03T12:23:03.426Z,97913.50
2018-05-03T12:24:08.054Z,97913.54
2018-05-03T12:25:13.153Z,97912.92
2018-05-03T12:26:17.743Z,97913.47
2018-05-03T12:27:22.383Z,97896.10
2018-05-03T12:28:27.097Z,97916.14
2018-05-03T12:29:31.982Z,97905.83
2018-05-03T12:30:36.572Z,97912.66
2018-05-03T12:31:42.442Z,97908.59
2018-05-03T12:32:47.109Z,97917.36
2018-05-03T12:33:51.684Z,97910.66
2018-05-03T12:34:56.176Z,97910.73
2018-05-03T12:36:00.727Z,97905.47
2018-05-03T12:37:05.230Z,97910.20
2018-05-03T12:38:10.195Z,97907.91
2018-05-03T12:39:14.722Z,97906.05
2018-05-03T12:40:19.260Z,97909.48
2018-05-03T12:41:23.784Z,97900.67
2018-05-03T12:42:28.341Z,97903.73
2018-05-03T12:43:32.969Z,97904.95
2018-05-03T12:44:38.062Z,97915.89
2018-05-03T12:45:42.661Z,97912.89
2018-05-03T12:46:47.169Z,97911.02
2018-05-03T12:47:51.730Z,97916.70
2018-05-03T12:48:56.265Z,97910.27
2018-05-03T12:50:00.759Z,97910.95
2018-05-03T12:51:05.616Z,97903.69
2018-05-03T12:52:10.174Z,97903.41
2018-05-03T12:53:14.516Z,97894.77
2018-05-03T12:54:18.897Z,97891.78
2018-05-03T12:55:23.352Z,97896.08
2018-05-03T12:56:27.827Z,97900.17
2018-05-03T12:57:32.584Z,97899.47
2018-05-03T12:58:36.960Z,97899.25
2018-05-03T12:59:41.395Z,97904.23
2018-05-03T13:00:46.043Z,97908.61
2018-05-03T13:01:50.753Z,97904.55
2018-05-03T13:02:55.222Z,97904.03
2018-05-03T13:04:00.160Z,97904.79
2018-05-03T13:05:05.650Z,97900.50
2018-05-03T13:06:10.290Z,97897.44
2018-05-03T13:07:14.777Z,97891.88
2018-05-03T13:08:19.268Z,97900.84
2018-05-03T13:09:23.635Z,97898.08
2018-05-03T13:10:28.657Z,97890.46